Time;durP1;ratioP1;P1;durP2;ratioP2;P2;SDS_P1;SDS_P2;PMS_P1;PMS_P2;Temp;Humidity;BMP_temperature;BMP_pressure;BME280_temperature;BME280_humidity;BME280_pressure;Samples;Min_cycle;Max_cycle;Signal;HPM_P1;HPM_P2
2021/12/14 00:00:17;;;;;;;19.90;14.50;;;9.50;99.90;;;;;;5115732;28;20448;-68
2021/12/14 00:02:46;;;;;;;21.13;14.17;;;9.50;99.90;;;;;;5115716;28;20537;-67
2021/12/14 00:05:14;;;;;;;26.23;15.50;;;9.50;99.90;;;;;;5115571;28;20461;-67
2021/12/14 00:07:42;;;;;;;19.57;13.57;;;9.50;99.90;;;;;;5115694;28;20780;-67
2021/12/14 00:10:27;;;;;;;26.80;15.83;;;9.40;99.90;;;;;;5115803;28;20466;-68
2021/12/14 00:12:59;;;;;;;24.57;15.30;;;9.30;99.90;;;;;;5116266;28;20759;-68
2021/12/14 00:15:26;;;;;;;24.33;15.33;;;9.30;99.90;;;;;;5115455;28;20518;-68
2021/12/14 00:17:56;;;;;;;23.27;15.33;;;9.30;99.90;;;;;;5115914;28;20457;-68
2021/12/14 00:20:27;;;;;;;22.67;14.73;;;9.30;99.90;;;;;;5115266;28;20456;-68
2021/12/14 00:25:48;;;;;;;22.60;14.10;;;9.40;99.90;;;;;;5076381;28;20469;-68
2021/12/14 00:28:18;;;;;;;19.73;13.60;;;9.40;99.90;;;;;;5115311;28;20447;-68
2021/12/14 00:30:48;;;;;;;17.03;13.03;;;9.40;99.90;;;;;;5114877;28;20456;-67
2021/12/14 00:33:18;;;;;;;19.97;14.00;;;9.40;99.90;;;;;;5115442;27;20522;-68
2021/12/14 00:35:46;;;;;;;18.73;13.83;;;9.40;99.90;;;;;;5115715;28;20872;-68
2021/12/14 00:38:16;;;;;;;21.17;13.17;;;9.40;99.90;;;;;;5114775;27;20453;-68
2021/12/14 00:40:46;;;;;;;18.20;13.10;;;9.40;99.90;;;;;;5115573;28;20777;-68
2021/12/14 00:43:14;;;;;;;22.00;13.20;;;9.40;99.90;;;;;;5115772;28;20483;-68
2021/12/14 00:45:43;;;;;;;19.60;13.40;;;9.30;99.90;;;;;;5115017;28;20463;-67
2021/12/14 00:48:11;;;;;;;19.20;13.50;;;9.40;99.90;;;;;;5115112;28;20457;-67
2021/12/14 00:50:43;;;;;;;18.23;12.60;;;9.40;99.90;;;;;;5115409;28;20817;-67
2021/12/14 00:53:09;;;;;;;18.30;12.63;;;9.30;99.90;;;;;;5115022;28;20440;-67
2021/12/14 00:55:42;;;;;;;19.30;12.07;;;9.30;99.90;;;;;;5114827;28;20457;-68
2021/12/14 00:58:10;;;;;;;18.50;12.37;;;9.40;99.90;;;;;;5115094;28;20769;-68
2021/12/14 01:00:40;;;;;;;16.90;12.50;;;9.40;99.90;;;;;;5115030;28;20452;-67
2021/12/14 01:03:08;;;;;;;16.90;13.60;;;9.30;99.90;;;;;;5114952;28;20492;-67
2021/12/14 01:05:38;;;;;;;20.30;11.87;;;9.30;99.90;;;;;;5114871;28;20456;-67
2021/12/14 01:08:09;;;;;;;15.13;11.47;;;9.40;99.90;;;;;;5115100;28;20464;-68
2021/12/14 01:10:42;;;;;;;17.17;12.80;;;9.40;99.90;;;;;;5114757;28;20468;-67
2021/12/14 01:13:10;;;;;;;18.77;12.27;;;9.40;99.90;;;;;;5114913;28;20451;-67
2021/12/14 01:15:51;;;;;;;17.10;12.80;;;9.40;99.90;;;;;;5114891;28;20456;-67
2021/12/14 01:18:31;;;;;;;16.70;12.63;;;9.30;99.90;;;;;;5114450;28;20437;-67
2021/12/14 01:21:08;;;;;;;19.27;13.70;;;9.30;99.90;;;;;;5114736;28;20444;-68
2021/12/14 01:23:35;;;;;;;18.20;11.53;;;9.40;99.90;;;;;;5114798;28;20468;-67
2021/12/14 01:26:08;;;;;;;17.43;12.00;;;9.40;99.90;;;;;;5114742;28;20452;-68
2021/12/14 01:28:36;;;;;;;16.57;11.90;;;9.40;99.90;;;;;;5114522;28;20509;-68
2021/12/14 01:31:12;;;;;;;19.40;12.60;;;9.40;99.90;;;;;;5114471;28;20932;-67
2021/12/14 01:33:41;;;;;;;18.90;11.93;;;9.40;99.90;;;;;;5114531;28;20469;-68
2021/12/14 01:36:21;;;;;;;17.10;12.53;;;9.40;99.90;;;;;;5114621;28;20844;-67
2021/12/14 01:39:08;;;;;;;16.33;11.23;;;9.40;99.90;;;;;;5114835;28;20452;-68
2021/12/14 01:41:37;;;;;;;15.13;10.67;;;9.40;99.90;;;;;;5114488;28;20445;-68
2021/12/14 01:44:05;;;;;;;17.23;11.63;;;9.40;99.90;;;;;;5114693;28;20513;-68
2021/12/14 01:46:36;;;;;;;16.57;11.20;;;9.40;99.90;;;;;;5114220;28;20464;-67
2021/12/14 01:49:07;;;;;;;16.70;11.73;;;9.40;99.90;;;;;;5114518;28;20441;-68
2021/12/14 01:51:38;;;;;;;14.47;10.97;;;9.40;99.90;;;;;;5116793;27;20791;-68
2021/12/14 01:54:08;;;;;;;14.60;11.03;;;9.40;99.90;;;;;;5118614;28;20440;-68
2021/12/14 01:56:36;;;;;;;15.23;10.60;;;9.40;99.90;;;;;;5118363;28;20459;-68
2021/12/14 01:59:09;;;;;;;14.37;9.13;;;9.40;99.90;;;;;;5118413;28;20471;-68
2021/12/14 02:01:43;;;;;;;12.37;9.10;;;9.40;99.90;;;;;;5118216;28;20495;-68
2021/12/14 02:04:13;;;;;;;13.80;10.07;;;9.40;99.90;;;;;;5118381;28;20425;-68
2021/12/14 02:06:40;;;;;;;14.80;9.47;;;9.40;99.90;;;;;;5118470;27;20440;-68
2021/12/14 02:09:10;;;;;;;12.50;8.80;;;9.40;99.90;;;;;;5118352;28;20462;-67
2021/12/14 02:11:43;;;;;;;11.43;8.63;;;9.40;99.90;;;;;;5118060;28;20440;-68
2021/12/14 02:14:10;;;;;;;13.60;9.43;;;9.40;99.90;;;;;;5117841;27;20455;-68
2021/12/14 02:16:38;;;;;;;13.40;8.90;;;9.40;99.90;;;;;;5117594;27;20908;-68
2021/12/14 02:19:07;;;;;;;13.40;9.30;;;9.40;99.90;;;;;;5118076;28;20780;-67
2021/12/14 02:21:36;;;;;;;10.60;9.00;;;9.40;99.90;;;;;;5117435;28;20900;-67
2021/12/14 02:24:05;;;;;;;13.47;8.80;;;9.40;99.90;;;;;;5117416;28;20540;-69
2021/12/14 02:26:35;;;;;;;11.33;7.80;;;9.40;99.90;;;;;;5117289;27;20908;-68
2021/12/14 02:29:05;;;;;;;13.77;8.60;;;9.40;99.90;;;;;;5117644;27;20972;-67
2021/12/14 02:31:34;;;;;;;11.70;8.17;;;9.40;99.90;;;;;;5117681;28;20437;-68
2021/12/14 02:34:02;;;;;;;14.23;8.60;;;9.40;99.90;;;;;;5117461;27;20600;-68
2021/12/14 02:36:32;;;;;;;13.23;8.70;;;9.40;99.90;;;;;;5117726;28;20456;-68
2021/12/14 02:39:07;;;;;;;11.20;8.63;;;9.50;99.90;;;;;;5117093;28;20467;-68
2021/12/14 02:41:44;;;;;;;10.07;7.77;;;9.40;99.90;;;;;;5117784;28;20446;-68
2021/12/14 02:44:12;;;;;;;11.57;9.10;;;9.40;99.90;;;;;;5117461;28;20461;-67
2021/12/14 02:46:42;;;;;;;12.87;8.60;;;9.40;99.90;;;;;;5117077;27;20916;-67
2021/12/14 02:49:11;;;;;;;14.00;9.70;;;9.40;99.90;;;;;;5117511;28;20467;-68
2021/12/14 02:51:40;;;;;;;12.20;9.07;;;9.30;99.90;;;;;;5116928;28;20484;-66
2021/12/14 02:54:13;;;;;;;9.97;8.13;;;9.30;99.90;;;;;;5117378;28;20779;-68
2021/12/14 02:56:45;;;;;;;10.50;7.83;;;9.40;99.90;;;;;;5117086;28;20472;-68
2021/12/14 02:59:16;;;;;;;11.60;8.63;;;9.40;99.90;;;;;;5117144;28;20521;-68
2021/12/14 03:01:44;;;;;;;14.07;8.67;;;9.40;99.90;;;;;;5116215;28;20455;-68
2021/12/14 03:04:12;;;;;;;10.70;8.60;;;9.40;99.90;;;;;;5117013;28;20484;-68
2021/12/14 03:06:45;;;;;;;10.70;8.10;;;9.40;99.90;;;;;;5116570;28;20456;-68
2021/12/14 03:09:32;;;;;;;10.93;8.10;;;9.40;99.90;;;;;;5117120;27;20509;-67
2021/12/14 03:12:00;;;;;;;11.83;8.40;;;9.40;99.90;;;;;;5116827;28;20531;-67
2021/12/14 03:14:27;;;;;;;9.97;8.03;;;9.40;99.90;;;;;;5117280;28;20449;-67
2021/12/14 03:16:54;;;;;;;11.03;9.03;;;9.40;99.90;;;;;;5116764;28;20803;-67
2021/12/14 03:19:21;;;;;;;10.23;7.53;;;9.30;99.90;;;;;;5116807;27;20467;-67
2021/12/14 03:21:49;;;;;;;12.57;8.17;;;9.40;99.90;;;;;;5116285;28;20525;-67
2021/12/14 03:24:19;;;;;;;18.73;8.97;;;9.30;99.90;;;;;;5116677;28;20807;-67
2021/12/14 03:26:49;;;;;;;10.07;7.80;;;9.30;99.90;;;;;;5117519;28;20452;-67
2021/12/14 03:29:21;;;;;;;8.97;7.10;;;9.30;99.90;;;;;;5116852;28;20471;-67
2021/12/14 03:31:51;;;;;;;9.93;8.10;;;9.30;99.90;;;;;;5116477;28;20441;-67
2021/12/14 03:34:22;;;;;;;10.47;7.87;;;9.30;99.90;;;;;;5116689;28;20465;-68
2021/12/14 03:36:51;;;;;;;12.17;7.90;;;9.30;99.90;;;;;;5116480;28;20443;-68
2021/12/14 03:39:22;;;;;;;10.83;7.87;;;9.30;99.90;;;;;;5116444;28;20821;-67
2021/12/14 03:41:52;;;;;;;8.57;7.40;;;9.20;99.90;;;;;;5116365;28;20494;-67
2021/12/14 03:44:24;;;;;;;11.80;7.77;;;9.20;99.90;;;;;;5116106;28;20491;-67
2021/12/14 03:46:54;;;;;;;12.37;9.23;;;9.20;99.90;;;;;;5116431;28;20455;-67
2021/12/14 03:49:24;;;;;;;9.43;7.10;;;9.20;99.90;;;;;;5116296;28;20449;-68
2021/12/14 03:51:51;;;;;;;10.63;7.50;;;9.20;99.90;;;;;;5115539;28;20485;-67
2021/12/14 03:54:20;;;;;;;10.40;8.20;;;9.20;99.90;;;;;;5116157;28;20456;-67
2021/12/14 03:56:47;;;;;;;12.27;8.53;;;9.20;99.90;;;;;;5116024;28;20533;-69
2021/12/14 03:59:14;;;;;;;12.00;8.03;;;9.20;99.90;;;;;;5116276;28;20482;-68
2021/12/14 04:01:45;;;;;;;13.50;9.23;;;9.20;99.90;;;;;;5115940;28;20449;-67
2021/12/14 04:04:16;;;;;;;11.30;8.50;;;9.10;99.90;;;;;;5115934;28;20460;-67
2021/12/14 04:06:45;;;;;;;10.70;8.17;;;9.20;99.90;;;;;;5116022;28;20527;-67
2021/12/14 04:09:15;;;;;;;12.47;8.43;;;9.10;99.90;;;;;;5115732;28;20463;-67
2021/12/14 04:11:44;;;;;;;12.60;7.50;;;9.10;99.90;;;;;;5115640;28;20505;-68
2021/12/14 04:14:11;;;;;;;12.03;8.10;;;9.10;99.90;;;;;;5114811;28;20457;-68
2021/12/14 04:16:41;;;;;;;14.20;9.30;;;9.10;99.90;;;;;;5115699;28;20517;-67
2021/12/14 04:19:10;;;;;;;12.80;8.60;;;9.10;99.90;;;;;;5115742;28;20452;-68
2021/12/14 04:21:41;;;;;;;11.93;8.40;;;9.10;99.90;;;;;;5115142;28;20890;-67
2021/12/14 04:24:09;;;;;;;13.40;8.93;;;9.10;99.90;;;;;;5115529;28;20480;-68
2021/12/14 04:26:43;;;;;;;10.67;7.97;;;9.10;99.90;;;;;;5115304;28;20939;-67
2021/12/14 04:29:12;;;;;;;10.00;7.27;;;9.10;99.90;;;;;;5115462;28;20437;-67
2021/12/14 04:31:40;;;;;;;12.10;8.40;;;9.10;99.90;;;;;;5115352;28;20547;-68
2021/12/14 04:34:07;;;;;;;11.87;8.03;;;9.10;99.90;;;;;;5115378;28;20459;-67
2021/12/14 04:36:34;;;;;;;13.77;7.80;;;9.10;99.90;;;;;;5115487;28;20460;-67
2021/12/14 04:39:28;;;;;;;12.63;8.17;;;9.00;99.90;;;;;;5115050;28;20456;-68
2021/12/14 04:53:13;;;;;;;11.93;9.03;;;9.00;99.90;;;;;;5115256;28;20439;-67
2021/12/14 04:55:41;;;;;;;11.50;7.70;;;9.00;99.90;;;;;;5115196;28;20828;-67
2021/12/14 04:58:08;;;;;;;11.17;7.93;;;8.90;99.90;;;;;;5115395;28;20448;-67
2021/12/14 05:00:40;;;;;;;12.63;8.03;;;9.00;99.90;;;;;;5114983;28;20545;-67
2021/12/14 05:03:16;;;;;;;13.30;7.73;;;9.00;99.90;;;;;;5115362;28;20472;-67
2021/12/14 05:05:48;;;;;;;14.67;8.20;;;9.00;99.90;;;;;;5115803;28;20451;-67
2021/12/14 05:11:05;;;;;;;12.03;8.47;;;9.00;99.90;;;;;;5115675;28;20432;-68
2021/12/14 05:13:34;;;;;;;13.17;8.10;;;9.00;99.90;;;;;;5116134;28;20463;-68
2021/12/14 05:16:03;;;;;;;10.93;8.03;;;9.00;99.90;;;;;;5116311;28;20533;-68
2021/12/14 05:18:30;;;;;;;11.93;7.90;;;8.90;99.90;;;;;;5116478;28;20496;-68
2021/12/14 05:20:58;;;;;;;13.70;8.40;;;8.90;99.90;;;;;;5116055;28;20460;-68
2021/12/14 05:23:27;;;;;;;16.03;9.57;;;8.90;99.90;;;;;;5115372;28;20818;-67
2021/12/14 05:25:56;;;;;;;12.93;8.80;;;8.90;99.90;;;;;;5118307;28;20456;-67
2021/12/14 05:28:24;;;;;;;14.13;8.60;;;8.90;99.90;;;;;;5120354;28;20463;-67
2021/12/14 05:30:54;;;;;;;11.80;8.37;;;8.90;99.90;;;;;;5119768;28;20460;-67
2021/12/14 05:33:25;;;;;;;14.00;9.17;;;8.90;99.90;;;;;;5119021;28;20909;-67
2021/12/14 05:35:54;;;;;;;12.20;7.80;;;8.90;99.90;;;;;;5119004;28;20448;-67
2021/12/14 05:38:37;;;;;;;10.47;7.77;;;8.90;99.90;;;;;;5119028;28;20452;-67
2021/12/14 05:41:14;;;;;;;13.57;9.37;;;8.90;99.90;;;;;;5119376;28;20436;-67
2021/12/14 05:43:43;;;;;;;15.43;8.40;;;8.90;99.90;;;;;;5119040;28;20476;-69
2021/12/14 05:46:11;;;;;;;12.13;7.70;;;8.90;99.90;;;;;;5119002;28;20471;-67
2021/12/14 05:48:41;;;;;;;13.43;8.57;;;8.90;99.90;;;;;;5119152;28;20471;-67
2021/12/14 05:51:10;;;;;;;11.67;7.93;;;8.90;99.90;;;;;;5118704;28;20516;-67
2021/12/14 05:53:39;;;;;;;14.67;8.63;;;9.00;99.90;;;;;;5118791;28;20455;-67
2021/12/14 05:56:11;;;;;;;17.33;8.10;;;9.00;99.90;;;;;;5118513;28;20452;-67
2021/12/14 05:58:38;;;;;;;11.37;7.03;;;8.90;99.90;;;;;;5118449;28;20743;-67
2021/12/14 06:01:08;;;;;;;11.90;7.40;;;9.00;99.90;;;;;;5118324;28;20533;-67
2021/12/14 06:03:39;;;;;;;8.53;6.47;;;9.00;99.90;;;;;;5118750;27;20506;-67
2021/12/14 06:06:15;;;;;;;13.53;8.13;;;9.00;99.90;;;;;;5118488;28;20437;-67
2021/12/14 06:08:42;;;;;;;12.20;7.90;;;9.00;99.90;;;;;;5118534;28;20439;-67
2021/12/14 06:11:09;;;;;;;11.30;7.90;;;9.00;99.90;;;;;;5118279;28;20468;-67
2021/12/14 06:13:39;;;;;;;11.47;7.63;;;9.00;99.90;;;;;;5117564;27;20873;-68
2021/12/14 06:16:08;;;;;;;11.07;8.17;;;8.90;99.90;;;;;;5118376;28;20513;-67
2021/12/14 06:18:35;;;;;;;12.73;8.07;;;9.00;99.90;;;;;;5118733;28;20486;-67
2021/12/14 06:21:02;;;;;;;12.20;8.03;;;8.90;99.90;;;;;;5117007;28;20505;-67
2021/12/14 06:23:30;;;;;;;10.60;7.83;;;8.80;99.90;;;;;;5118103;27;20492;-68
2021/12/14 06:25:57;;;;;;;12.33;8.20;;;8.80;99.90;;;;;;5117567;27;20455;-67
2021/12/14 06:28:25;;;;;;;11.70;8.67;;;8.80;99.90;;;;;;5118011;28;20456;-67
2021/12/14 06:30:56;;;;;;;12.27;7.63;;;8.80;99.90;;;;;;5117621;28;20503;-68
2021/12/14 06:33:23;;;;;;;10.13;7.20;;;8.90;99.90;;;;;;5117694;28;20463;-68
2021/12/14 06:35:54;;;;;;;11.13;8.27;;;8.90;99.90;;;;;;5117154;28;20453;-68
2021/12/14 06:38:29;;;;;;;10.07;7.43;;;8.90;99.90;;;;;;5117362;28;20470;-68
2021/12/14 06:41:06;;;;;;;12.73;7.60;;;8.90;99.90;;;;;;5117514;27;20493;-68
2021/12/14 06:43:39;;;;;;;12.03;7.77;;;8.80;99.90;;;;;;5117574;27;20468;-68
2021/12/14 06:46:08;;;;;;;10.60;7.20;;;8.80;99.90;;;;;;5117669;28;20437;-68
2021/12/14 06:48:39;;;;;;;10.63;7.73;;;8.80;99.90;;;;;;5117558;28;20452;-68
2021/12/14 06:51:09;;;;;;;10.10;7.17;;;8.80;99.90;;;;;;5117079;28;20476;-69
2021/12/14 06:53:38;;;;;;;12.23;8.53;;;8.80;99.90;;;;;;5117385;28;20447;-67
2021/12/14 06:56:09;;;;;;;9.23;6.40;;;8.80;99.90;;;;;;5117146;28;20508;-68
2021/12/14 06:58:39;;;;;;;12.17;7.97;;;8.80;99.90;;;;;;5117824;28;20990;-68
2021/12/14 07:01:09;;;;;;;10.67;7.97;;;8.80;99.90;;;;;;5117486;28;20514;-68
2021/12/14 07:03:42;;;;;;;11.20;7.50;;;8.80;99.90;;;;;;5117586;28;20477;-68
2021/12/14 07:06:12;;;;;;;11.70;7.43;;;8.80;99.90;;;;;;5118089;28;20451;-68
2021/12/14 07:08:40;;;;;;;11.37;7.97;;;8.70;99.90;;;;;;5117325;28;20453;-68
2021/12/14 07:11:08;;;;;;;10.30;6.97;;;8.70;99.90;;;;;;5116767;28;20467;-68
2021/12/14 07:13:38;;;;;;;10.27;7.97;;;8.70;99.90;;;;;;5117174;28;20456;-68
2021/12/14 07:16:19;;;;;;;10.10;7.53;;;8.70;99.90;;;;;;5116888;28;20540;-69
2021/12/14 07:18:48;;;;;;;11.57;7.30;;;8.80;99.90;;;;;;5117144;28;20463;-68
2021/12/14 07:21:32;;;;;;;10.77;7.40;;;8.80;99.90;;;;;;5116955;27;20482;-68
2021/12/14 07:23:59;;;;;;;10.47;7.53;;;8.80;99.90;;;;;;5117896;28;20772;-68
2021/12/14 07:26:27;;;;;;;8.80;7.00;;;8.80;99.90;;;;;;5117173;28;20471;-68
2021/12/14 07:28:59;;;;;;;10.00;7.50;;;8.80;99.90;;;;;;5117505;28;20453;-68
2021/12/14 07:31:26;;;;;;;9.40;7.17;;;8.80;99.90;;;;;;5116675;28;20444;-68
2021/12/14 07:33:55;;;;;;;10.80;7.53;;;8.80;99.90;;;;;;5117536;28;20453;-68
2021/12/14 07:36:25;;;;;;;9.43;7.50;;;8.80;99.90;;;;;;5117428;28;20463;-68
2021/12/14 07:38:55;;;;;;;11.43;7.50;;;8.90;99.90;;;;;;5117096;28;20539;-68
2021/12/14 07:41:28;;;;;;;13.13;7.23;;;8.90;99.90;;;;;;5116807;28;20498;-68
2021/12/14 07:43:59;;;;;;;9.53;7.40;;;8.80;99.90;;;;;;5117022;28;20808;-67
2021/12/14 07:46:31;;;;;;;11.47;7.80;;;8.80;99.90;;;;;;5116775;28;20463;-68
2021/12/14 07:49:00;;;;;;;10.60;7.97;;;8.80;99.90;;;;;;5116578;28;20441;-68
2021/12/14 07:51:33;;;;;;;10.40;7.80;;;8.90;99.90;;;;;;5115941;28;20506;-68
2021/12/14 07:54:05;;;;;;;10.90;7.60;;;8.90;99.90;;;;;;5116694;28;20437;-68
2021/12/14 07:56:37;;;;;;;10.67;7.40;;;8.90;99.90;;;;;;5116060;28;20489;-68
2021/12/14 07:59:16;;;;;;;9.97;7.20;;;8.80;99.90;;;;;;5116117;28;20896;-67
2021/12/14 08:01:43;;;;;;;9.87;7.90;;;8.80;99.90;;;;;;5116436;28;20437;-69
2021/12/14 08:04:12;;;;;;;11.07;7.30;;;8.80;99.90;;;;;;5115699;28;20856;-67
2021/12/14 08:06:46;;;;;;;11.70;7.53;;;8.80;99.90;;;;;;5115852;28;20513;-67
2021/12/14 08:09:33;;;;;;;11.90;8.50;;;8.80;99.90;;;;;;5115783;28;20441;-66
2021/12/14 08:12:02;;;;;;;13.43;8.90;;;8.80;99.90;;;;;;5115786;28;20437;-68
2021/12/14 08:14:29;;;;;;;13.20;8.90;;;8.80;99.90;;;;;;5115678;28;20448;-68
2021/12/14 08:16:59;;;;;;;11.50;7.93;;;8.90;99.90;;;;;;5115578;28;20463;-67
2021/12/14 08:19:32;;;;;;;11.77;8.57;;;8.80;99.90;;;;;;5115429;28;20448;-67
2021/12/14 08:22:01;;;;;;;12.53;9.23;;;8.80;99.90;;;;;;5115718;28;20452;-68
2021/12/14 08:24:28;;;;;;;10.03;8.17;;;8.80;99.90;;;;;;5115508;28;20540;-68
2021/12/14 08:26:58;;;;;;;11.00;7.43;;;8.80;99.90;;;;;;5115658;28;20456;-68
2021/12/14 08:29:29;;;;;;;11.17;8.30;;;8.90;99.90;;;;;;5115353;28;20769;-67
2021/12/14 08:31:59;;;;;;;11.57;8.50;;;8.90;99.90;;;;;;5115275;28;20772;-68
2021/12/14 08:34:28;;;;;;;11.30;8.80;;;8.90;99.90;;;;;;5115089;28;20479;-68
2021/12/14 08:37:02;;;;;;;10.20;8.20;;;8.90;99.90;;;;;;5115031;28;20820;-68
2021/12/14 08:39:32;;;;;;;16.13;9.17;;;8.90;99.90;;;;;;5115447;28;20437;-68
2021/12/14 08:42:11;;;;;;;17.37;9.70;;;8.90;99.90;;;;;;5115508;28;20433;-68
2021/12/14 08:44:49;;;;;;;14.50;10.00;;;8.90;99.90;;;;;;5115457;28;20988;-67
2021/12/14 08:47:23;;;;;;;12.17;8.73;;;8.90;99.90;;;;;;5115612;28;20523;-68
2021/12/14 08:49:50;;;;;;;14.57;9.97;;;8.90;99.90;;;;;;5116135;28;20835;-68
2021/12/14 08:52:17;;;;;;;13.83;9.63;;;8.90;99.90;;;;;;5115921;28;20491;-68
2021/12/14 08:54:44;;;;;;;12.93;9.60;;;8.90;99.90;;;;;;5118903;28;20459;-67
2021/12/14 08:57:15;;;;;;;16.87;11.13;;;8.80;99.90;;;;;;5116863;28;20456;-68
2021/12/14 08:59:47;;;;;;;14.60;11.10;;;8.90;99.90;;;;;;5116290;28;20452;-68
2021/12/14 09:02:16;;;;;;;12.47;9.37;;;8.90;99.90;;;;;;5116322;28;20774;-68
2021/12/14 09:04:47;;;;;;;11.13;8.67;;;8.90;99.90;;;;;;5115561;28;20488;-68
2021/12/14 09:07:17;;;;;;;12.23;9.00;;;8.90;99.90;;;;;;5114821;28;20456;-68
2021/12/14 09:09:45;;;;;;;12.83;9.50;;;8.90;99.90;;;;;;5115918;28;20444;-69
2021/12/14 09:12:15;;;;;;;12.97;9.33;;;8.90;99.90;;;;;;5115797;28;20880;-67
2021/12/14 09:14:46;;;;;;;12.13;10.00;;;8.90;99.90;;;;;;5115065;28;20460;-67
2021/12/14 09:17:15;;;;;;;10.27;7.57;;;8.90;99.90;;;;;;5114744;28;20774;-68
2021/12/14 09:19:47;;;;;;;12.47;8.77;;;8.80;99.90;;;;;;5115112;28;20782;-68
2021/12/14 09:22:17;;;;;;;13.13;8.80;;;8.80;99.90;;;;;;5114883;28;20784;-68
2021/12/14 09:24:45;;;;;;;12.30;8.80;;;8.80;99.90;;;;;;5114739;28;20464;-67
2021/12/14 09:27:16;;;;;;;12.47;10.37;;;8.90;99.90;;;;;;5114868;28;20501;-67
2021/12/14 09:29:44;;;;;;;12.00;8.90;;;8.90;99.90;;;;;;5114723;28;20440;-68
2021/12/14 09:32:17;;;;;;;12.43;9.27;;;9.00;99.90;;;;;;5114413;28;20475;-69
2021/12/14 09:34:44;;;;;;;12.30;9.10;;;9.00;99.90;;;;;;5114789;28;20437;-67
2021/12/14 09:37:12;;;;;;;12.03;8.70;;;9.00;99.90;;;;;;5114650;28;20456;-68
2021/12/14 09:39:46;;;;;;;18.40;8.90;;;9.00;99.90;;;;;;5114351;28;20539;-68
2021/12/14 09:42:18;;;;;;;13.40;8.90;;;9.00;99.90;;;;;;5114232;28;20532;-67
2021/12/14 09:44:49;;;;;;;41.57;9.90;;;9.00;99.90;;;;;;5114307;28;20457;-68
2021/12/14 09:47:21;;;;;;;14.33;9.13;;;9.00;99.90;;;;;;5114522;28;20448;-68
2021/12/14 09:49:51;;;;;;;15.47;10.00;;;9.00;99.90;;;;;;5114542;28;20451;-68
2021/12/14 09:52:22;;;;;;;17.10;11.00;;;9.10;99.90;;;;;;5114273;28;20494;-68
2021/12/14 09:54:50;;;;;;;15.57;10.87;;;9.10;99.90;;;;;;5114478;28;20448;-68
2021/12/14 09:57:21;;;;;;;14.87;11.00;;;9.10;99.90;;;;;;5114777;28;20452;-68
2021/12/14 09:59:51;;;;;;;14.03;10.30;;;9.10;99.90;;;;;;5114508;28;20436;-68
2021/12/14 10:02:22;;;;;;;14.90;10.40;;;9.10;99.90;;;;;;5114583;28;20881;-69
2021/12/14 10:04:52;;;;;;;15.90;9.90;;;9.10;99.90;;;;;;5114394;28;20475;-68
2021/12/14 10:07:22;;;;;;;16.93;11.20;;;9.10;99.90;;;;;;5114646;28;20467;-68
2021/12/14 10:09:50;;;;;;;13.93;10.77;;;9.10;99.90;;;;;;5115105;28;20789;-68
2021/12/14 10:15:15;;;;;;;10.67;8.93;;;9.10;99.90;;;;;;5118548;28;20420;-68
2021/12/14 10:17:44;;;;;;;16.10;10.03;;;9.10;99.90;;;;;;5118523;28;20447;-68
2021/12/14 10:20:15;;;;;;;12.07;8.80;;;9.10;99.90;;;;;;5118212;28;20939;-69
2021/12/14 10:22:45;;;;;;;13.33;10.67;;;9.10;99.90;;;;;;5118131;27;20524;-68
2021/12/14 10:25:15;;;;;;;12.83;9.80;;;9.10;99.90;;;;;;5117748;28;20480;-67
2021/12/14 10:27:43;;;;;;;12.43;9.53;;;9.10;99.90;;;;;;5117384;27;20452;-67
2021/12/14 10:30:18;;;;;;;14.17;10.27;;;9.20;99.90;;;;;;5117800;28;20765;-68
2021/12/14 10:32:46;;;;;;;12.00;8.57;;;9.20;99.90;;;;;;5117838;28;20440;-68
2021/12/14 10:35:17;;;;;;;10.37;7.73;;;9.20;99.90;;;;;;5117666;28;20487;-68
2021/12/14 10:37:54;;;;;;;12.40;9.67;;;9.20;99.90;;;;;;5117860;28;20440;-67
2021/12/14 10:43:15;;;;;;;14.00;9.50;;;9.20;99.90;;;;;;5117809;28;20753;-67
2021/12/14 10:45:46;;;;;;;13.90;10.07;;;9.20;99.90;;;;;;5117562;28;20467;-68
2021/12/14 10:48:13;;;;;;;11.87;9.67;;;9.30;99.90;;;;;;5117137;28;20436;-68
2021/12/14 10:50:42;;;;;;;14.87;10.87;;;9.30;99.90;;;;;;5117197;28;20491;-68
2021/12/14 10:53:10;;;;;;;14.17;10.80;;;9.30;99.90;;;;;;5117314;28;20932;-68
2021/12/14 10:55:42;;;;;;;16.53;10.07;;;9.40;99.90;;;;;;5116951;28;20456;-67
2021/12/14 10:58:10;;;;;;;17.03;9.90;;;9.40;99.90;;;;;;5117309;28;20445;-68
2021/12/14 11:00:43;;;;;;;12.23;10.40;;;9.40;99.90;;;;;;5117010;28;20471;-68
2021/12/14 11:03:15;;;;;;;12.03;9.87;;;9.40;99.90;;;;;;5117152;28;20528;-68
2021/12/14 11:05:46;;;;;;;13.70;10.20;;;9.50;99.90;;;;;;5117414;28;21006;-68
2021/12/14 11:08:33;;;;;;;13.13;10.60;;;9.50;99.90;;;;;;5116626;28;20451;-68
2021/12/14 11:11:02;;;;;;;15.50;10.70;;;9.50;99.90;;;;;;5116808;28;20440;-68
2021/12/14 11:13:38;;;;;;;17.60;12.10;;;9.60;99.90;;;;;;5117063;27;20452;-68
2021/12/14 11:16:07;;;;;;;16.97;12.40;;;9.60;99.90;;;;;;5116953;28;20432;-68
2021/12/14 11:18:34;;;;;;;14.00;9.60;;;9.60;99.90;;;;;;5117109;28;20552;-67
2021/12/14 11:21:05;;;;;;;13.10;9.77;;;9.60;99.90;;;;;;5116837;28;20517;-68
2021/12/14 11:23:34;;;;;;;15.10;10.50;;;9.70;99.90;;;;;;5116445;28;20551;-67
2021/12/14 11:26:05;;;;;;;15.37;11.07;;;9.70;99.90;;;;;;5116733;28;20473;-69
2021/12/14 11:28:37;;;;;;;13.27;10.20;;;9.70;99.90;;;;;;5116003;28;20444;-68
2021/12/14 11:31:11;;;;;;;14.67;11.83;;;9.60;99.90;;;;;;5116960;28;20761;-68
2021/12/14 11:33:43;;;;;;;19.97;10.63;;;9.60;99.90;;;;;;5115546;28;20452;-68
2021/12/14 11:36:13;;;;;;;15.70;9.53;;;9.60;99.90;;;;;;5116144;28;20468;-69
2021/12/14 11:38:43;;;;;;;14.13;11.03;;;9.60;99.90;;;;;;5116299;28;20463;-66
2021/12/14 11:41:28;;;;;;;14.80;10.40;;;9.60;99.90;;;;;;5115783;28;20459;-68
2021/12/14 11:44:00;;;;;;;14.53;10.87;;;9.70;99.90;;;;;;5116176;28;20448;-68
2021/12/14 11:46:30;;;;;;;16.27;10.13;;;9.70;99.90;;;;;;5115524;28;20465;-68
2021/12/14 11:48:59;;;;;;;14.13;10.27;;;9.70;99.90;;;;;;5116131;28;20588;-68
2021/12/14 11:51:29;;;;;;;11.70;9.27;;;9.80;99.90;;;;;;5115658;28;20487;-69
2021/12/14 11:54:00;;;;;;;16.80;9.63;;;9.80;99.90;;;;;;5115946;28;20464;-68
2021/12/14 11:56:34;;;;;;;14.27;10.60;;;9.80;99.90;;;;;;5115392;28;20524;-68
2021/12/14 11:59:04;;;;;;;13.10;10.30;;;9.80;99.90;;;;;;5115784;28;20498;-68
2021/12/14 12:01:36;;;;;;;15.40;11.00;;;9.80;99.90;;;;;;5116069;27;20468;-67
2021/12/14 12:04:06;;;;;;;16.67;11.30;;;9.70;99.90;;;;;;5115826;28;20479;-67
2021/12/14 12:06:46;;;;;;;15.97;10.33;;;9.70;99.90;;;;;;5115755;28;20542;-68
2021/12/14 12:09:31;;;;;;;14.83;11.00;;;9.60;99.90;;;;;;5115443;28;20884;-68
2021/12/14 12:12:06;;;;;;;15.33;11.60;;;9.60;99.90;;;;;;5115734;28;20441;-68
2021/12/14 12:14:36;;;;;;;16.30;10.53;;;9.60;99.90;;;;;;5115933;28;20451;-68
2021/12/14 12:17:14;;;;;;;17.20;10.60;;;9.60;99.90;;;;;;5116103;28;20513;-68
2021/12/14 12:19:52;;;;;;;14.73;10.00;;;9.60;99.90;;;;;;5115861;28;20441;-68
2021/12/14 12:22:19;;;;;;;17.00;10.80;;;9.60;99.90;;;;;;5115666;28;20433;-68
2021/12/14 12:24:50;;;;;;;13.93;10.30;;;9.70;99.90;;;;;;5115484;28;20456;-67
2021/12/14 12:27:30;;;;;;;16.43;11.13;;;9.70;99.90;;;;;;5118201;28;20421;-68
2021/12/14 12:30:27;;;;;;;16.83;11.77;;;9.70;99.90;;;;;;5116864;28;20432;-68
2021/12/14 12:32:54;;;;;;;15.30;11.13;;;9.70;99.90;;;;;;5115336;28;20429;-68
2021/12/14 12:35:26;;;;;;;20.07;11.90;;;9.70;99.90;;;;;;5114941;28;20939;-68
2021/12/14 12:37:54;;;;;;;14.80;9.53;;;9.80;99.90;;;;;;5115913;28;20445;-67
2021/12/14 12:40:46;;;;;;;14.97;10.97;;;9.80;99.90;;;;;;5115530;28;20460;-68
2021/12/14 12:43:16;;;;;;;16.67;11.13;;;9.70;99.90;;;;;;5115634;28;20447;-68
2021/12/14 12:45:56;;;;;;;15.60;10.90;;;9.60;99.90;;;;;;5115526;28;20481;-67
2021/12/14 12:48:50;;;;;;;15.43;10.77;;;9.60;99.90;;;;;;5115220;28;20477;-68
2021/12/14 12:51:50;;;;;;;16.57;10.03;;;9.60;99.90;;;;;;5118671;28;20581;-69
2021/12/14 12:54:31;;;;;;;16.83;10.90;;;9.50;99.90;;;;;;5115656;28;20936;-68
2021/12/14 12:57:28;;;;;;;14.70;10.23;;;9.50;99.90;;;;;;5115303;28;20444;-68
2021/12/14 13:00:00;;;;;;;15.73;10.20;;;9.50;99.90;;;;;;5116039;28;20445;-68
2021/12/14 13:02:30;;;;;;;14.97;10.20;;;9.50;99.90;;;;;;5116749;28;20533;-68
2021/12/14 13:05:01;;;;;;;12.53;9.83;;;9.40;99.90;;;;;;5115277;28;20904;-68
2021/12/14 13:07:31;;;;;;;14.93;11.07;;;9.40;99.90;;;;;;5115193;28;20535;-69
2021/12/14 13:10:14;;;;;;;14.30;10.40;;;9.40;99.90;;;;;;5115087;28;20456;-68
2021/12/14 13:12:45;;;;;;;16.17;10.63;;;9.50;99.90;;;;;;5115020;28;20488;-69
2021/12/14 13:15:40;;;;;;;15.57;10.43;;;9.50;99.90;;;;;;5115261;28;20445;-68
2021/12/14 13:18:23;;;;;;;18.63;9.90;;;9.40;99.90;;;;;;5114603;28;20877;-67
2021/12/14 13:20:54;;;;;;;13.87;10.90;;;9.40;99.90;;;;;;5114636;28;20463;-67
2021/12/14 13:23:23;;;;;;;13.47;8.90;;;9.40;99.90;;;;;;5114865;28;20452;-68
2021/12/14 13:25:51;;;;;;;13.73;9.40;;;9.30;99.90;;;;;;5114590;28;20563;-68